createdAt,value
2018-06-23T00:00:08.245Z,93.22
2018-06-23T00:01:17.105Z,93.27
2018-06-23T00:02:25.956Z,93.08
2018-06-23T00:03:35.089Z,92.88
2018-06-23T00:04:44.325Z,93.27
2018-06-23T00:05:53.186Z,93.22
2018-06-23T00:07:02.871Z,93.22
2018-06-23T00:08:11.729Z,93.12
2018-06-23T00:09:20.589Z,92.98
2018-06-23T00:10:29.655Z,93.31
2018-06-23T00:11:38.515Z,93.55
2018-06-23T00:12:47.650Z,93.17
2018-06-23T00:13:56.506Z,93.31
2018-06-23T00:15:05.645Z,93.41
2018-06-23T00:16:14.537Z,93.02
2018-06-23T00:17:23.358Z,93.12
2018-06-23T00:18:32.494Z,93.22
2018-06-23T00:19:41.360Z,93.31
2018-06-23T00:20:50.497Z,93.27
2018-06-23T00:21:59.706Z,93.22
2018-06-23T00:23:08.568Z,93.51
2018-06-23T00:24:17.745Z,93.74
2018-06-23T00:25:26.602Z,93.08
2018-06-23T00:26:35.458Z,93.51
2018-06-23T00:27:44.950Z,93.6
2018-06-23T00:28:53.808Z,93.12
2018-06-23T00:30:02.948Z,93.27
2018-06-23T00:31:12.082Z,93.22
2018-06-23T00:32:20.939Z,93.27
2018-06-23T00:33:29.846Z,93.55
2018-06-23T00:34:38.704Z,93.65
2018-06-23T00:35:47.837Z,93.65
2018-06-23T00:36:56.695Z,93.08
2018-06-23T00:38:06.110Z,93.27
2018-06-23T00:39:15.591Z,93.36
2018-06-23T00:40:24.450Z,93.65
2018-06-23T00:41:33.313Z,93.17
2018-06-23T00:42:42.769Z,93.65
2018-06-23T00:43:51.623Z,93.51
2018-06-23T00:45:00.628Z,93.22
2018-06-23T00:46:09.486Z,93.51
2018-06-23T00:47:18.341Z,93.31
2018-06-23T00:48:27.752Z,93.51
2018-06-23T00:49:36.609Z,93.55
2018-06-23T00:50:45.816Z,93.36
2018-06-23T00:51:54.675Z,93.55
2018-06-23T00:53:03.532Z,93.65
2018-06-23T00:54:12.672Z,93.27
2018-06-23T00:55:21.528Z,93.55
2018-06-23T00:56:30.740Z,93.65
2018-06-23T00:57:39.596Z,93.46
2018-06-23T00:58:48.736Z,93.27
2018-06-23T00:59:57.593Z,93.12
2018-06-23T01:01:06.452Z,93.41
2018-06-23T01:02:15.510Z,93.31
2018-06-23T01:03:24.641Z,93.51
2018-06-23T01:04:33.498Z,93.22
2018-06-23T01:05:42.354Z,93.31
2018-06-23T01:06:51.212Z,93.31
2018-06-23T01:08:00.175Z,93.31
2018-06-23T01:09:09.309Z,92.93
2018-06-23T01:10:18.171Z,93.65
2018-06-23T01:11:27.303Z,93.27
2018-06-23T01:12:36.212Z,93.55
2018-06-23T01:13:45.221Z,93.27
2018-06-23T01:14:54.077Z,93.79
2018-06-23T01:16:02.933Z,93.55
2018-06-23T01:17:11.791Z,93.46
2018-06-23T01:18:20.656Z,93.46
2018-06-23T01:19:29.562Z,93.55
2018-06-23T01:20:38.702Z,93.55
2018-06-23T01:21:47.563Z,93.55
2018-06-23T01:22:56.419Z,93.08
2018-06-23T01:24:05.279Z,93.65
2018-06-23T01:25:14.762Z,93.27
2018-06-23T01:26:23.619Z,93.08
2018-06-23T01:27:38.757Z,93.46
2018-06-23T01:28:47.621Z,92.79
2018-06-23T01:29:56.478Z,92.98
2018-06-23T01:31:05.385Z,93.36
2018-06-23T01:32:14.240Z,92.69
2018-06-23T01:33:23.374Z,93.17
2018-06-23T01:34:32.231Z,93.36
2018-06-23T01:35:41.090Z,93.27
2018-06-23T01:36:50.380Z,92.88
2018-06-23T01:37:59.240Z,93.17
2018-06-23T01:39:08.096Z,92.88
2018-06-23T01:40:16.952Z,93.17
2018-06-23T01:41:26.090Z,93.08
2018-06-23T01:42:35.230Z,93.17
2018-06-23T01:43:44.374Z,92.6
2018-06-23T01:44:53.506Z,93.08
2018-06-23T01:46:02.365Z,92.79
2018-06-23T01:47:11.503Z,92.12
2018-06-23T01:48:20.711Z,92.83
2018-06-23T01:49:29.572Z,92.6
2018-06-23T01:50:38.709Z,91.74
2018-06-23T01:51:47.841Z,91.74
2018-06-23T01:52:56.977Z,91.88
2018-06-23T01:54:05.985Z,91.36
2018-06-23T01:55:14.842Z,91.36
2018-06-23T01:56:23.700Z,91.36
2018-06-23T01:57:32.844Z,90.69
2018-06-23T01:58:41.700Z,90.98
2018-06-23T01:59:50.984Z,90.22
2018-06-23T02:01:00.135Z,90.41
2018-06-23T02:02:09.273Z,90.03
2018-06-23T02:03:18.128Z,89.93
2018-06-23T02:04:26.987Z,88.88
2018-06-23T02:05:35.945Z,88.78
2018-06-23T02:06:44.803Z,87.74
2018-06-23T02:07:53.658Z,87.07
2018-06-23T02:09:02.518Z,85.64
2018-06-23T02:10:11.374Z,84.2
2018-06-23T02:11:20.237Z,83.06
2018-06-23T02:12:29.092Z,82.01
2018-06-23T02:13:38.226Z,80.87
2018-06-23T02:14:47.087Z,80.58
2018-06-23T02:15:55.948Z,80.11
2018-06-23T02:17:04.855Z,80.16
2018-06-23T02:18:13.711Z,80.3
2018-06-23T02:19:22.667Z,79.63
2018-06-23T02:20:31.521Z,79.4
2018-06-23T02:21:40.377Z,79.21
2018-06-23T02:22:49.283Z,78.96
2018-06-23T02:23:58.418Z,78.58
2018-06-23T02:25:07.273Z,78.67
2018-06-23T02:26:16.128Z,77.72
2018-06-23T02:27:25.261Z,78.3
2018-06-23T02:28:34.268Z,78.01
2018-06-23T02:29:43.125Z,78.1
2018-06-23T02:30:51.983Z,77.91
2018-06-23T02:32:01.120Z,76.86
2018-06-23T02:33:10.274Z,76.39
2018-06-23T02:34:19.407Z,73.91
2018-06-23T02:35:28.818Z,72.57
2018-06-23T02:36:37.957Z,71.81
2018-06-23T02:37:47.100Z,68.28
2018-06-23T02:38:56.243Z,65.7
2018-06-23T02:40:05.151Z,63.6
2018-06-23T02:41:14.564Z,59.86
2018-06-23T02:42:23.973Z,57.57
2018-06-23T02:43:33.113Z,57.09
2018-06-23T02:44:41.976Z,54.64
2018-06-23T02:45:50.886Z,53.95
2018-06-23T02:47:00.573Z,52.23
2018-06-23T02:48:09.707Z,50.52
2018-06-23T02:49:18.574Z,49.85
2018-06-23T02:50:27.429Z,48.04
2018-06-23T02:51:37.117Z,47.18
2018-06-23T02:52:46.248Z,46.61
2018-06-23T02:53:55.109Z,45.28
2018-06-23T02:55:04.524Z,45.08
2018-06-23T02:56:13.933Z,44.13
2018-06-23T02:57:23.267Z,44.32
2018-06-23T02:58:32.124Z,42.8
2018-06-23T02:59:41.267Z,44.51
2018-06-23T03:00:50.682Z,44.23
2018-06-23T03:01:59.816Z,45.47
2018-06-23T03:03:09.376Z,44.73
2018-06-23T03:04:18.233Z,45.08
2018-06-23T03:05:27.371Z,44.42
2018-06-23T03:06:36.229Z,43.96
2018-06-23T03:07:45.364Z,42.13
2018-06-23T03:08:54.224Z,40.22
2018-06-23T03:10:03.082Z,39.56
2018-06-23T03:11:12.221Z,39.27
2018-06-23T03:12:21.631Z,39.36
2018-06-23T03:13:31.042Z,39.17
2018-06-23T03:14:39.897Z,39.08
2018-06-23T03:15:49.044Z,38.98
2018-06-23T03:16:58.744Z,38.41
2018-06-23T03:18:07.611Z,38.22
2018-06-23T03:19:17.021Z,38.22
2018-06-23T03:20:26.078Z,39
2018-06-23T03:21:34.935Z,38.79
2018-06-23T03:22:43.791Z,38.41
2018-06-23T03:23:52.654Z,38.51
2018-06-23T03:25:01.510Z,37.93
2018-06-23T03:26:10.521Z,38.03
2018-06-23T03:27:19.378Z,37.93
2018-06-23T03:28:28.239Z,37.74
2018-06-23T03:29:37.091Z,37.36
2018-06-23T03:30:45.951Z,38.32
2018-06-23T03:31:55.648Z,40.24
2018-06-23T03:33:05.060Z,39.39
2018-06-23T03:34:13.920Z,39
2018-06-23T03:35:22.782Z,39.29
2018-06-23T03:36:31.634Z,38.43
2018-06-23T03:37:41.126Z,39.19
2018-06-23T03:38:49.984Z,38.24
2018-06-23T03:39:58.838Z,39.39
2018-06-23T03:41:07.694Z,38.91
2018-06-23T03:42:16.553Z,38.15
2018-06-23T03:43:25.511Z,38.34
2018-06-23T03:44:34.367Z,38.81
2018-06-23T03:45:43.224Z,39.58
2018-06-23T03:46:52.081Z,39.19
2018-06-23T03:48:00.956Z,40.15
2018-06-23T03:49:09.945Z,40.81
2018-06-23T03:50:18.806Z,40.53
2018-06-23T03:51:27.674Z,39.76
2018-06-23T03:52:36.523Z,39.39
2018-06-23T03:53:45.387Z,39.39
2018-06-23T03:54:54.574Z,39.39
2018-06-23T03:56:03.988Z,39.48
2018-06-23T03:57:12.844Z,39.58
2018-06-23T03:58:21.704Z,40.05
2018-06-23T03:59:30.556Z,40.24
2018-06-23T04:00:40.017Z,40.83
2018-06-23T04:01:49.708Z,40.63
2018-06-23T04:02:58.567Z,40.34
2018-06-23T04:04:07.699Z,40.24
2018-06-23T04:05:16.559Z,40.63
2018-06-23T04:06:25.794Z,41.2
2018-06-23T04:07:34.661Z,40.83
2018-06-23T04:08:43.796Z,40.91
2018-06-23T04:09:52.931Z,40.63
2018-06-23T04:11:01.792Z,39.95
2018-06-23T04:12:10.798Z,39.76
2018-06-23T04:13:19.657Z,39.76
2018-06-23T04:14:28.514Z,40.26
2018-06-23T04:15:37.374Z,39.88
2018-06-23T04:16:46.274Z,39.12
2018-06-23T04:17:55.389Z,39.31
2018-06-23T04:19:04.248Z,38.43
2018-06-23T04:20:13.103Z,38.93
2018-06-23T04:21:22.238Z,38.26
2018-06-23T04:22:31.095Z,38.54
2018-06-23T04:23:40.002Z,38.43
2018-06-23T04:24:48.862Z,38.93
2018-06-23T04:25:57.996Z,38.93
2018-06-23T04:27:06.855Z,39.31
2018-06-23T04:28:15.714Z,39.02
2018-06-23T04:29:24.680Z,39.22
2018-06-23T04:30:33.539Z,40.36
2018-06-23T04:31:42.395Z,40.45
2018-06-23T04:32:51.253Z,40.45
2018-06-23T04:34:00.111Z,41.22
2018-06-23T04:35:09.248Z,41.12
2018-06-23T04:36:18.386Z,41.22
2018-06-23T04:37:27.529Z,40.93
2018-06-23T04:38:36.661Z,41.22
2018-06-23T04:39:45.516Z,41.12
2018-06-23T04:40:54.755Z,41.22
2018-06-23T04:42:03.902Z,42.17
2018-06-23T04:43:12.760Z,42.17
2018-06-23T04:44:21.902Z,42.27
2018-06-23T04:45:31.036Z,42.27
2018-06-23T04:46:40.172Z,42.17
2018-06-23T04:47:49.037Z,41.88
2018-06-23T04:48:58.145Z,42.55
2018-06-23T04:50:07.004Z,42.48
2018-06-23T04:51:16.145Z,42.36
2018-06-23T04:52:25.105Z,42.17
2018-06-23T04:53:33.963Z,42.17
2018-06-23T04:54:42.824Z,41.88
2018-06-23T04:55:51.680Z,41.88
2018-06-23T04:57:00.536Z,42.08
2018-06-23T04:58:09.549Z,42.08
2018-06-23T04:59:18.404Z,41.88
2018-06-23T05:00:27.315Z,43.13
2018-06-23T05:01:36.121Z,44.2
2018-06-23T05:02:44.978Z,43.72
2018-06-23T05:03:53.839Z,43.33
2018-06-23T05:05:03.249Z,43.62
2018-06-23T05:06:12.499Z,42.86
2018-06-23T05:07:21.924Z,42.38
2018-06-23T05:08:31.059Z,41.24
2018-06-23T05:09:40.295Z,40.37
2018-06-23T05:10:49.427Z,40.86
2018-06-23T05:11:58.285Z,41.14
2018-06-23T05:13:07.422Z,40.47
2018-06-23T05:14:16.280Z,39.61
2018-06-23T05:15:25.138Z,39.71
2018-06-23T05:16:33.998Z,39.23
2018-06-23T05:17:42.856Z,38.28
2018-06-23T05:18:51.724Z,36.64
2018-06-23T05:20:00.572Z,36.25
2018-06-23T05:21:09.883Z,36.16
2018-06-23T05:22:18.742Z,35.39
2018-06-23T05:23:27.879Z,33.39
2018-06-23T05:24:36.739Z,33.97
2018-06-23T05:25:45.598Z,33.39
2018-06-23T05:26:54.608Z,31.87
2018-06-23T05:28:03.464Z,30.82
2018-06-23T05:29:12.323Z,31.2
2018-06-23T05:30:21.185Z,30.43
2018-06-23T05:31:30.040Z,29.38
2018-06-23T05:32:39.050Z,30.15
2018-06-23T05:33:47.909Z,31.2
2018-06-23T05:34:56.765Z,31.69
2018-06-23T05:36:05.627Z,30.43
2018-06-23T05:37:14.757Z,31.1
2018-06-23T05:38:24.036Z,31.77
2018-06-23T05:39:32.902Z,32.24
2018-06-23T05:40:42.041Z,32.06
2018-06-23T05:41:50.900Z,30.53
2018-06-23T05:42:59.764Z,30.72
2018-06-23T05:44:08.898Z,30.53
2018-06-23T05:45:17.755Z,30.24
2018-06-23T05:46:26.614Z,30.91
2018-06-23T05:47:35.748Z,32.24
2018-06-23T05:48:44.882Z,33.49
2018-06-23T05:49:53.843Z,34.84
2018-06-23T05:51:02.699Z,33.79
2018-06-23T05:52:11.837Z,36.94
2018-06-23T05:53:20.692Z,35.87
2018-06-23T05:54:29.550Z,35.99
2018-06-23T05:55:38.704Z,35.49
2018-06-23T05:56:47.850Z,35.39
2018-06-23T05:57:56.993Z,36.18
2018-06-23T05:59:05.853Z,34.94
2018-06-23T06:00:14.992Z,36.08
2018-06-23T06:01:24.128Z,36.16
2018-06-23T06:02:32.989Z,35.59
2018-06-23T06:03:41.849Z,36.37
2018-06-23T06:04:50.710Z,36.46
2018-06-23T06:05:59.572Z,36.56
2018-06-23T06:07:08.766Z,36.46
2018-06-23T06:08:17.565Z,36.75
2018-06-23T06:09:26.435Z,37.61
2018-06-23T06:10:35.296Z,36.85
2018-06-23T06:11:44.454Z,37.99
2018-06-23T06:12:53.577Z,40.3
2018-06-23T06:14:02.794Z,39.92
2018-06-23T06:15:11.658Z,40.37
2018-06-23T06:16:20.723Z,44.12
2018-06-23T06:17:29.584Z,42.86
2018-06-23T06:18:38.606Z,46.7
2018-06-23T06:19:47.471Z,44.98
2018-06-23T06:20:56.614Z,45.17
2018-06-23T06:22:05.521Z,44.41
2018-06-23T06:23:14.382Z,46.03
2018-06-23T06:24:23.242Z,48.23
2018-06-23T06:25:32.103Z,49.57
2018-06-23T06:26:40.969Z,47.75
2018-06-23T06:27:50.104Z,50.52
2018-06-23T06:28:58.964Z,51.48
2018-06-23T06:30:08.105Z,53.29
2018-06-23T06:31:16.963Z,52.43
2018-06-23T06:32:25.825Z,53.99
2018-06-23T06:33:34.958Z,53.77
2018-06-23T06:34:43.818Z,54.44
2018-06-23T06:35:52.963Z,60.68
2018-06-23T06:37:02.097Z,57.59
2018-06-23T06:38:11.235Z,59.81
2018-06-23T06:39:20.292Z,61.25
2018-06-23T06:40:29.152Z,61.16
2018-06-23T06:41:38.292Z,63.16
2018-06-23T06:42:47.152Z,63.64
2018-06-23T06:43:56.169Z,65.26
2018-06-23T06:45:05.320Z,68.23
2018-06-23T06:46:14.462Z,69.76
2018-06-23T06:47:23.323Z,69.95
2018-06-23T06:48:32.466Z,69.85
2018-06-23T06:49:41.330Z,68.7
2018-06-23T06:50:50.234Z,69.66
2018-06-23T06:51:59.707Z,74.28
2018-06-23T06:53:08.568Z,72.72
2018-06-23T06:54:17.428Z,72.37
2018-06-23T06:55:26.999Z,73.19
2018-06-23T06:56:35.859Z,73.77
2018-06-23T06:57:45.004Z,74.85
2018-06-23T06:58:53.865Z,74.76
2018-06-23T07:00:02.728Z,76.57
2018-06-23T07:01:11.642Z,77.34
2018-06-23T07:02:20.514Z,76.77
2018-06-23T07:03:29.379Z,77.06
2018-06-23T07:04:38.544Z,77.72
2018-06-23T07:05:47.683Z,80.02
2018-06-23T07:06:56.820Z,80.69
2018-06-23T07:08:05.682Z,79.64
2018-06-23T07:09:14.541Z,80.02
2018-06-23T07:10:23.404Z,79.35
2018-06-23T07:11:32.265Z,82.51
2018-06-23T07:12:41.126Z,82.98
2018-06-23T07:13:49.983Z,82.7
2018-06-23T07:14:58.847Z,82.79
2018-06-23T07:16:07.711Z,80.59
2018-06-23T07:17:16.848Z,80.59
2018-06-23T07:18:26.039Z,81.55
2018-06-23T07:19:34.898Z,82.7
2018-06-23T07:20:43.758Z,83.27
2018-06-23T07:21:52.621Z,82.31
2018-06-23T07:23:01.484Z,84.42
2018-06-23T07:24:10.395Z,83.46
2018-06-23T07:25:19.675Z,85.57
2018-06-23T07:26:28.811Z,85.66
2018-06-23T07:27:37.672Z,85.57
2018-06-23T07:28:46.810Z,85.66
2018-06-23T07:29:55.771Z,84.61
2018-06-23T07:31:04.917Z,83.75
2018-06-23T07:32:14.058Z,85.75
2018-06-23T07:33:23.197Z,84.32
2018-06-23T07:34:32.233Z,86.94
2018-06-23T07:35:41.996Z,87.57
2018-06-23T07:36:50.857Z,85.66
2018-06-23T07:37:59.719Z,88.86
2018-06-23T07:39:08.578Z,88.38
2018-06-23T07:40:17.437Z,87.48
2018-06-23T07:41:26.298Z,87.43
2018-06-23T07:42:35.451Z,87.33
2018-06-23T07:43:44.313Z,88.24
2018-06-23T07:44:53.176Z,88.81
2018-06-23T07:46:02.036Z,87.33
2018-06-23T07:47:11.253Z,88.76
2018-06-23T07:48:20.113Z,88.86
2018-06-23T07:49:28.975Z,88.67
2018-06-23T07:50:38.119Z,89.53
2018-06-23T07:51:46.983Z,89.24
2018-06-23T07:52:55.895Z,89.34
2018-06-23T07:54:05.035Z,89.43
2018-06-23T07:55:13.897Z,89.34
2018-06-23T07:56:22.759Z,88.86
2018-06-23T07:57:31.618Z,90.2
2018-06-23T07:58:40.483Z,89.81
2018-06-23T07:59:49.345Z,90.01
2018-06-23T08:00:58.210Z,89.62
2018-06-23T08:02:07.632Z,88.95
2018-06-23T08:03:16.496Z,90.67
2018-06-23T08:04:25.454Z,89.34
2018-06-23T08:05:34.315Z,90.1
2018-06-23T08:06:43.494Z,90.48
2018-06-23T08:07:52.361Z,90.48
2018-06-23T08:09:01.220Z,89.53
2018-06-23T08:10:10.418Z,90.1
2018-06-23T08:11:19.837Z,89.53
2018-06-23T08:12:28.697Z,90.2
2018-06-23T08:13:37.837Z,89.72
2018-06-23T08:14:46.973Z,89.72
2018-06-23T08:15:56.187Z,90.2
2018-06-23T08:17:05.047Z,91.25
2018-06-23T08:18:13.908Z,89.72
2018-06-23T08:19:22.774Z,90.1
2018-06-23T08:20:32.188Z,89.05
2018-06-23T08:21:41.199Z,90.48
2018-06-23T08:22:50.342Z,90.39
2018-06-23T08:23:59.479Z,91.35
2018-06-23T08:25:08.629Z,90.39
2018-06-23T08:26:17.579Z,90.67
2018-06-23T08:27:27.092Z,91.35
2018-06-23T08:28:36.233Z,90.67
2018-06-23T08:29:45.086Z,90.2
2018-06-23T08:30:53.949Z,91.44
2018-06-23T08:32:02.812Z,90.1
2018-06-23T08:33:11.827Z,90.63
2018-06-23T08:34:20.960Z,90.48
2018-06-23T08:35:29.822Z,89.91
2018-06-23T08:36:38.687Z,89.91
2018-06-23T08:37:47.849Z,90.72
2018-06-23T08:38:57.268Z,90.58
2018-06-23T08:40:06.130Z,91.44
2018-06-23T08:41:14.991Z,90.72
2018-06-23T08:42:23.854Z,90.44
2018-06-23T08:43:32.718Z,90.53
2018-06-23T08:44:41.920Z,90.82
2018-06-23T08:45:50.782Z,90.15
2018-06-23T08:46:59.644Z,90.15
2018-06-23T08:48:08.506Z,90.53
2018-06-23T08:49:17.393Z,90.53
2018-06-23T08:50:26.690Z,89.67
2018-06-23T08:51:35.551Z,89.95
2018-06-23T08:52:44.409Z,90.44
2018-06-23T08:53:53.269Z,89.67
2018-06-23T08:55:02.133Z,90.34
2018-06-23T08:56:11.274Z,89.48
2018-06-23T08:57:20.137Z,88.9
2018-06-23T08:58:28.997Z,89.19
2018-06-23T08:59:38.139Z,88.9
2018-06-23T09:00:47.001Z,89.58
2018-06-23T09:01:56.769Z,90.72
2018-06-23T09:03:05.631Z,90.63
2018-06-23T09:04:14.770Z,89.33
2018-06-23T09:05:23.672Z,89.14
2018-06-23T09:06:32.495Z,88.95
2018-06-23T09:07:41.632Z,89.04
2018-06-23T09:08:50.496Z,88.85
2018-06-23T09:09:59.356Z,88.85
2018-06-23T09:11:08.227Z,89.23
2018-06-23T09:12:17.363Z,88.95
2018-06-23T09:13:26.376Z,89.33
2018-06-23T09:14:35.236Z,89.52
2018-06-23T09:15:44.098Z,89.81
2018-06-23T09:16:53.025Z,89.14
2018-06-23T09:18:02.466Z,89.33
2018-06-23T09:19:11.532Z,89.33
2018-06-23T09:20:20.397Z,89.62
2018-06-23T09:21:29.256Z,90
2018-06-23T09:22:38.121Z,90.53
2018-06-23T09:23:46.979Z,90.48
2018-06-23T09:24:56.241Z,91.49
2018-06-23T09:26:05.106Z,91.49
2018-06-23T09:27:13.969Z,91.49
2018-06-23T09:28:22.830Z,91.77
2018-06-23T09:29:31.692Z,91.68
2018-06-23T09:30:40.601Z,91.68
2018-06-23T09:31:49.462Z,91.3
2018-06-23T09:32:58.327Z,91.97
2018-06-23T09:34:07.461Z,91.53
2018-06-23T09:35:16.321Z,91.44
2018-06-23T09:36:25.531Z,90.86
2018-06-23T09:37:34.393Z,91.05
2018-06-23T09:38:43.253Z,90.86
2018-06-23T09:39:52.395Z,90.48
2018-06-23T09:41:01.252Z,90.67
2018-06-23T09:42:10.680Z,90.77
2018-06-23T09:43:19.543Z,91.39
2018-06-23T09:44:28.407Z,91.53
2018-06-23T09:45:37.271Z,91.25
2018-06-23T09:46:46.697Z,91.53
2018-06-23T09:47:55.622Z,91.25
2018-06-23T09:49:04.481Z,92.01
2018-06-23T09:50:13.619Z,92.87
2018-06-23T09:51:22.482Z,91.82
2018-06-23T09:52:31.347Z,91.53
2018-06-23T09:53:40.739Z,91.25
2018-06-23T09:54:49.602Z,91.34
2018-06-23T09:55:58.474Z,92.44
2018-06-23T09:57:07.619Z,91.87
2018-06-23T09:58:16.763Z,92.35
2018-06-23T09:59:25.620Z,92.63
2018-06-23T10:00:34.481Z,93.3
2018-06-23T10:01:43.342Z,92.73
2018-06-23T10:02:52.203Z,92.73
2018-06-23T10:04:01.340Z,92.54
2018-06-23T10:05:10.248Z,92.11
2018-06-23T10:06:19.396Z,92.11
2018-06-23T10:07:28.257Z,92.16
2018-06-23T10:08:37.169Z,92.02
2018-06-23T10:09:45.979Z,92.16
2018-06-23T10:10:54.840Z,92.63
2018-06-23T10:12:03.702Z,92.4
2018-06-23T10:13:12.559Z,92.21
2018-06-23T10:14:21.421Z,92.49
2018-06-23T10:15:30.311Z,92.02
2018-06-23T10:16:39.294Z,91.68
2018-06-23T10:17:48.155Z,91.73
2018-06-23T10:18:57.016Z,91.73
2018-06-23T10:20:06.154Z,92.02
2018-06-23T10:21:15.016Z,91.35
2018-06-23T10:22:24.154Z,91.44
2018-06-23T10:23:33.015Z,92.02
2018-06-23T10:24:41.880Z,91.58
2018-06-23T10:25:50.736Z,91.68
2018-06-23T10:26:59.602Z,91.97
2018-06-23T10:28:08.817Z,91.49
2018-06-23T10:29:17.684Z,91.2
2018-06-23T10:30:26.825Z,91.49
2018-06-23T10:31:35.966Z,91.34
2018-06-23T10:32:45.110Z,91.68
2018-06-23T10:33:54.021Z,91.39
2018-06-23T10:35:02.882Z,91.25
2018-06-23T10:36:11.744Z,91.2
2018-06-23T10:37:20.604Z,91.68
2018-06-23T10:38:29.470Z,91.53
2018-06-23T10:39:38.479Z,91.77
2018-06-23T10:40:47.345Z,91.53
2018-06-23T10:41:56.205Z,92.11
2018-06-23T10:43:05.630Z,92.01
2018-06-23T10:44:14.494Z,91.68
2018-06-23T10:45:23.905Z,91.87
2018-06-23T10:46:32.768Z,92.35
2018-06-23T10:47:41.633Z,91.3
2018-06-23T10:48:50.504Z,91.72
2018-06-23T10:49:59.358Z,91.77
2018-06-23T10:51:08.370Z,91.72
2018-06-23T10:52:17.790Z,91.58
2018-06-23T10:53:26.931Z,92.83
2018-06-23T10:54:35.795Z,91.58
2018-06-23T10:55:44.930Z,92.16
2018-06-23T10:56:54.129Z,91.39
2018-06-23T10:58:02.988Z,91.87
2018-06-23T10:59:11.850Z,92.68
2018-06-23T11:00:20.712Z,91.68
2018-06-23T11:01:29.573Z,92.35
2018-06-23T11:02:38.813Z,92.25
2018-06-23T11:03:47.677Z,92.25
2018-06-23T11:04:56.709Z,91.68
2018-06-23T11:06:05.920Z,91.87
2018-06-23T11:07:14.782Z,92.06
2018-06-23T11:08:23.644Z,91.58
2018-06-23T11:09:32.783Z,91.77
2018-06-23T11:10:41.920Z,92.01
2018-06-23T11:11:50.782Z,92.01
2018-06-23T11:12:59.917Z,91.72
2018-06-23T11:14:09.262Z,91.82
2018-06-23T11:15:18.127Z,90.67
2018-06-23T11:16:26.999Z,91.25
2018-06-23T11:17:36.136Z,90.96
2018-06-23T11:18:44.997Z,91.1
2018-06-23T11:19:54.139Z,91.53
2018-06-23T11:21:03.004Z,91.19
2018-06-23T11:22:11.872Z,91.49
2018-06-23T11:23:21.019Z,89.28
2018-06-23T11:24:30.206Z,89.86
2018-06-23T11:25:39.867Z,89.23
2018-06-23T11:26:48.731Z,89.86
2018-06-23T11:27:57.594Z,90.14
2018-06-23T11:29:06.733Z,89.72
2018-06-23T11:30:15.593Z,88.8
2018-06-23T11:31:24.606Z,89.86
2018-06-23T11:32:33.467Z,90.72
2018-06-23T11:33:42.326Z,89.66
2018-06-23T11:34:51.188Z,89.86
2018-06-23T11:36:00.332Z,89.28
2018-06-23T11:37:09.524Z,89.57
2018-06-23T11:38:18.667Z,89.57
2018-06-23T11:39:27.531Z,90.53
2018-06-23T11:40:36.395Z,89.95
2018-06-23T11:41:45.539Z,90.81
2018-06-23T11:42:54.827Z,89.66
2018-06-23T11:44:03.969Z,90.23
2018-06-23T11:45:12.833Z,90.14
2018-06-23T11:46:21.694Z,89.37
2018-06-23T11:47:30.556Z,89.95
2018-06-23T11:48:40.049Z,89.95
2018-06-23T11:49:49.192Z,90.62
2018-06-23T11:50:58.612Z,90.62
2018-06-23T11:52:07.522Z,91.29
2018-06-23T11:53:16.707Z,91.39
2018-06-23T11:54:25.669Z,91.67
2018-06-23T11:55:34.529Z,92.4
2018-06-23T11:56:43.389Z,92.21
2018-06-23T11:57:52.527Z,91.92
2018-06-23T11:59:01.389Z,92.49
2018-06-23T12:00:10.881Z,92.01
2018-06-23T12:01:19.743Z,92.11
2018-06-23T12:02:28.881Z,91.53
2018-06-23T12:03:38.022Z,92.58
2018-06-23T12:04:46.878Z,91.44
2018-06-23T12:05:56.120Z,92.01
2018-06-23T12:07:05.262Z,91.92
2018-06-23T12:08:14.125Z,92.11
2018-06-23T12:09:22.998Z,92.4
2018-06-23T12:10:32.139Z,91.92
2018-06-23T12:11:41.150Z,92.58
2018-06-23T12:12:50.024Z,91.92
2018-06-23T12:13:58.877Z,91.53
2018-06-23T12:15:08.018Z,91.63
2018-06-23T12:16:16.882Z,91.63
2018-06-23T12:17:26.373Z,91.82
2018-06-23T12:18:35.512Z,91.82
2018-06-23T12:19:44.372Z,91.44
2018-06-23T12:20:53.236Z,91.05
2018-06-23T12:22:02.098Z,90.39
2018-06-23T12:23:11.011Z,89.28
2018-06-23T12:24:19.870Z,90.14
2018-06-23T12:25:28.767Z,90.62
2018-06-23T12:26:37.609Z,91.58
2018-06-23T12:27:46.748Z,91.29
2018-06-23T12:28:55.661Z,91.19
2018-06-23T12:30:04.524Z,90.23
2018-06-23T12:31:13.388Z,89.76
2018-06-23T12:32:22.252Z,89.43
2018-06-23T12:33:31.113Z,88.8
2018-06-23T12:34:40.358Z,87.94
2018-06-23T12:35:49.217Z,88.03
2018-06-23T12:36:58.081Z,87.17
2018-06-23T12:38:07.220Z,88.32
2018-06-23T12:39:16.083Z,87.17
2018-06-23T12:40:25.095Z,87.27
2018-06-23T12:41:34.033Z,87.46
2018-06-23T12:42:43.239Z,87.17
2018-06-23T12:43:52.102Z,87.84
2018-06-23T12:45:01.240Z,87.84
2018-06-23T12:46:10.101Z,88.61
2018-06-23T12:47:18.962Z,89.09
2018-06-23T12:48:27.846Z,88.99
2018-06-23T12:49:36.985Z,89.76
2018-06-23T12:50:45.847Z,90.19
2018-06-23T12:51:55.146Z,90.43
2018-06-23T12:53:04.006Z,89.76
2018-06-23T12:54:12.868Z,90.05
2018-06-23T12:55:22.076Z,89.57
2018-06-23T12:56:30.935Z,88.7
2018-06-23T12:57:40.148Z,88.42
2018-06-23T12:58:49.345Z,88.32
2018-06-23T12:59:58.205Z,88.42
2018-06-23T13:01:07.359Z,87.74
2018-06-23T13:02:16.220Z,87.17
2018-06-23T13:03:25.434Z,87.65
2018-06-23T13:04:34.297Z,88.03
2018-06-23T13:05:43.157Z,88.42
2018-06-23T13:06:52.021Z,88.61
2018-06-23T13:08:01.161Z,88.03
2018-06-23T13:09:10.073Z,88.9
2018-06-23T13:10:19.209Z,89.28
2018-06-23T13:11:28.352Z,89.47
2018-06-23T13:12:37.218Z,89.76
2018-06-23T13:13:46.633Z,89.04
2018-06-23T13:14:55.745Z,89.37
2018-06-23T13:16:05.192Z,89.66
2018-06-23T13:17:14.051Z,89.09
2018-06-23T13:18:22.912Z,88.42
2018-06-23T13:19:32.053Z,88.9
2018-06-23T13:20:40.968Z,89.18
2018-06-23T13:21:49.829Z,88.13
2018-06-23T13:22:58.692Z,88.42
2018-06-23T13:24:07.556Z,88.9
2018-06-23T13:25:16.974Z,88.99
2018-06-23T13:26:26.183Z,88.99
2018-06-23T13:27:35.047Z,89.57
2018-06-23T13:28:44.482Z,89.76
2018-06-23T13:29:53.345Z,90.14
2018-06-23T13:31:02.208Z,90.62
2018-06-23T13:32:11.119Z,90.23
2018-06-23T13:33:20.560Z,90.72
2018-06-23T13:34:29.979Z,89.86
2018-06-23T13:35:38.836Z,90.14
2018-06-23T13:36:47.700Z,90.23
2018-06-23T13:37:56.886Z,91.29
2018-06-23T13:39:05.750Z,90.43
2018-06-23T13:40:14.613Z,90.72
2018-06-23T13:41:23.479Z,91.29
2018-06-23T13:42:32.620Z,91.19
2018-06-23T13:43:41.536Z,91.49
2018-06-23T13:44:50.396Z,91.58
2018-06-23T13:45:59.541Z,91.49
2018-06-23T13:47:08.433Z,91.34
2018-06-23T13:48:17.711Z,91.86
2018-06-23T13:49:26.957Z,91.34
2018-06-23T13:50:35.818Z,90.76
2018-06-23T13:51:44.958Z,90
2018-06-23T13:52:53.824Z,89.8
2018-06-23T13:54:02.686Z,90.38
2018-06-23T13:55:11.651Z,89.8
2018-06-23T13:56:20.515Z,90.47
2018-06-23T13:57:29.382Z,90.09
2018-06-23T13:58:38.518Z,90.28
2018-06-23T13:59:47.381Z,90.28
2018-06-23T14:00:56.695Z,90.09
2018-06-23T14:02:05.557Z,90.57
2018-06-23T14:03:14.710Z,91.24
2018-06-23T14:04:24.272Z,90.67
2018-06-23T14:05:33.413Z,91.53
2018-06-23T14:06:42.274Z,90.76
2018-06-23T14:07:51.138Z,90
2018-06-23T14:09:00.013Z,90.28
2018-06-23T14:10:09.159Z,89.65
2018-06-23T14:11:18.577Z,88.84
2018-06-23T14:12:27.868Z,88.98
2018-06-23T14:13:37.058Z,89.37
2018-06-23T14:14:45.943Z,88.94
2018-06-23T14:15:55.150Z,89.23
2018-06-23T14:17:04.016Z,88.41
2018-06-23T14:18:13.031Z,89.27
2018-06-23T14:19:21.902Z,87.84
2018-06-23T14:20:31.322Z,88.31
2018-06-23T14:21:40.211Z,87.35
2018-06-23T14:22:49.363Z,87.93
2018-06-23T14:23:58.325Z,86.97
2018-06-23T14:25:07.191Z,87.74
2018-06-23T14:26:16.062Z,86.88
2018-06-23T14:27:24.925Z,87.84
2018-06-23T14:28:33.791Z,87.74
2018-06-23T14:29:42.753Z,88.41
2018-06-23T14:30:51.899Z,88.79
2018-06-23T14:32:01.432Z,87.93
2018-06-23T14:33:13.144Z,88.37
2018-06-23T14:34:22.281Z,89.65
2018-06-23T14:35:31.202Z,89.18
2018-06-23T14:36:40.062Z,88.79
2018-06-23T14:37:48.925Z,88.31
2018-06-23T14:38:57.788Z,89.18
2018-06-23T14:40:06.659Z,88.56
2018-06-23T14:41:16.574Z,89.8
2018-06-23T14:42:25.437Z,89.71
2018-06-23T14:43:34.301Z,89.42
2018-06-23T14:44:43.444Z,89.8
2018-06-23T14:45:52.304Z,89.61
2018-06-23T14:47:01.216Z,90.28
2018-06-23T14:48:11.237Z,90.19
2018-06-23T14:49:20.102Z,90.57
2018-06-23T14:50:28.966Z,89.23